createdAt,value
2023-03-06T00:01:11.597Z,79.96
2023-03-06T00:05:08.618Z,79.98
2023-03-06T00:10:08.350Z,79.99
2023-03-06T00:15:08.422Z,79.98
2023-03-06T00:20:08.495Z,79.99
2023-03-06T00:25:08.559Z,80.0
2023-03-06T00:30:08.641Z,80.0
2023-03-06T00:35:08.697Z,80.01
2023-03-06T00:40:08.720Z,80.02
2023-03-06T00:45:08.784Z,80.0
2023-03-06T00:50:08.884Z,80.0
2023-03-06T00:55:08.880Z,80.03
2023-03-06T01:00:08.996Z,80.02
2023-03-06T01:05:08.048Z,80.01
2023-03-06T01:10:08.175Z,80.05
2023-03-06T01:15:08.319Z,80.03
2023-03-06T01:20:08.426Z,80.03
2023-03-06T01:25:08.496Z,80.05
2023-03-06T01:30:08.770Z,80.04
2023-03-06T01:35:08.882Z,80.04
2023-03-06T01:40:08.938Z,80.04
2023-03-06T01:45:07.972Z,80.05
2023-03-06T01:50:08.027Z,80.04
2023-03-06T01:55:08.129Z,80.08
2023-03-06T02:00:08.174Z,80.03
2023-03-06T02:05:08.246Z,80.07
2023-03-06T02:10:08.313Z,80.06
2023-03-06T02:15:08.404Z,80.06
2023-03-06T02:20:18.482Z,80.06
2023-03-06T02:25:08.497Z,80.08
2023-03-06T02:30:08.529Z,80.07
2023-03-06T02:35:08.577Z,80.07
2023-03-06T02:40:08.630Z,80.05
2023-03-06T02:45:08.757Z,80.06
2023-03-06T02:50:08.791Z,80.07
2023-03-06T02:55:08.873Z,80.05
2023-03-06T03:00:08.919Z,80.06
2023-03-06T03:05:08.973Z,80.06
2023-03-06T03:10:08.026Z,80.1
2023-03-06T03:15:08.088Z,80.07
2023-03-06T03:20:08.162Z,80.08
2023-03-06T03:25:08.196Z,80.08
2023-03-06T03:30:08.301Z,80.09
2023-03-06T03:35:08.363Z,80.1
2023-03-06T03:40:08.467Z,80.1
2023-03-06T03:45:08.594Z,80.1
2023-03-06T03:50:08.675Z,80.1
2023-03-06T03:55:08.740Z,80.09
2023-03-06T04:00:08.893Z,80.09
2023-03-06T04:05:08.980Z,80.11
2023-03-06T04:10:08.148Z,80.11
2023-03-06T04:15:08.213Z,80.1
2023-03-06T04:20:08.225Z,80.07
2023-03-06T04:25:08.270Z,80.09
2023-03-06T04:30:08.341Z,80.09
2023-03-06T04:35:08.389Z,80.09
2023-03-06T04:40:08.427Z,80.1
2023-03-06T04:45:08.503Z,80.11
2023-03-06T04:50:08.601Z,80.14
2023-03-06T04:55:08.667Z,80.09
2023-03-06T05:00:08.691Z,80.09
2023-03-06T05:05:03.021Z,80.11
2023-03-06T05:10:02.212Z,80.12
2023-03-06T05:15:02.435Z,80.11
2023-03-06T05:20:02.611Z,80.13
2023-03-06T05:25:02.981Z,80.12
2023-03-06T05:30:02.118Z,80.11
2023-03-06T05:35:02.436Z,80.12
2023-03-06T05:40:02.628Z,80.11
2023-03-06T05:45:02.886Z,80.11
2023-03-06T05:50:03.078Z,80.11
2023-03-06T05:55:02.396Z,80.11
2023-03-06T06:00:02.805Z,80.09
2023-03-06T06:05:03.229Z,80.14
2023-03-06T06:10:03.893Z,80.13
2023-03-06T06:15:02.165Z,80.12
2023-03-06T06:20:02.431Z,80.11
2023-03-06T06:25:02.782Z,80.11
2023-03-06T06:30:03.060Z,80.12
2023-03-06T06:35:02.320Z,80.12
2023-03-06T06:40:02.697Z,80.1
2023-03-06T06:45:02.941Z,80.11
2023-03-06T06:50:02.169Z,80.12
2023-03-06T06:55:02.387Z,80.12
2023-03-06T07:00:02.822Z,80.11
2023-03-06T07:05:05.282Z,80.14
2023-03-06T07:10:02.899Z,80.12
2023-03-06T07:15:03.200Z,80.13
2023-03-06T07:20:02.425Z,80.12
2023-03-06T07:25:02.708Z,80.14
2023-03-06T07:30:02.895Z,80.11
2023-03-06T07:35:19.077Z,80.11
2023-03-06T07:40:02.152Z,80.12
2023-03-06T07:45:02.569Z,80.1
2023-03-06T07:50:02.767Z,80.12
2023-03-06T07:55:02.999Z,80.11
2023-03-06T08:00:02.370Z,80.12
2023-03-06T08:05:02.573Z,80.09
2023-03-06T08:10:02.912Z,80.09
2023-03-06T08:15:03.175Z,80.09
2023-03-06T08:20:02.527Z,80.08
2023-03-06T08:25:02.910Z,80.09
2023-03-06T08:30:02.246Z,80.09
2023-03-06T08:35:02.563Z,80.1
2023-03-06T08:40:02.923Z,80.09
2023-03-06T08:45:02.249Z,80.07
2023-03-06T08:50:02.583Z,80.08
2023-03-06T08:55:02.968Z,80.07
2023-03-06T09:00:02.393Z,80.07
2023-03-06T09:05:03.047Z,80.07
2023-03-06T09:10:02.374Z,80.04
2023-03-06T09:15:02.668Z,80.02
2023-03-06T09:20:02.847Z,79.99
2023-03-06T09:25:03.098Z,79.96
2023-03-06T09:30:02.416Z,79.94
2023-03-06T09:35:02.983Z,79.9
2023-03-06T09:40:02.301Z,79.88
2023-03-06T09:45:02.576Z,79.87
2023-03-06T09:50:04.854Z,79.86
2023-03-06T09:55:13.238Z,79.83
2023-03-06T10:00:04.415Z,79.82
2023-03-06T10:05:03.033Z,79.82
2023-03-06T10:10:02.370Z,79.83
2023-03-06T10:15:02.550Z,79.8
2023-03-06T10:20:02.863Z,79.78
2023-03-06T10:25:03.278Z,79.74
2023-03-06T10:30:12.500Z,79.72
2023-03-06T10:35:02.765Z,79.69
2023-03-06T10:40:02.985Z,79.67
2023-03-06T10:45:02.279Z,79.65
2023-03-06T10:50:02.611Z,79.62
2023-03-06T10:55:02.877Z,79.6
2023-03-06T11:00:03.076Z,79.56
2023-03-06T11:05:02.457Z,79.54
2023-03-06T11:10:02.656Z,79.52
2023-03-06T11:15:05.967Z,79.53
2023-03-06T11:20:12.229Z,79.55
2023-03-06T11:25:02.578Z,79.56
2023-03-06T11:30:02.657Z,79.52
2023-03-06T11:35:02.786Z,79.53
2023-03-06T11:40:02.932Z,79.49
2023-03-06T11:45:03.353Z,79.42
2023-03-06T11:50:02.509Z,79.38
2023-03-06T11:55:02.672Z,79.34
2023-03-06T12:00:03.026Z,79.28
2023-03-06T12:05:12.226Z,79.22
2023-03-06T12:10:02.543Z,79.18
2023-03-06T12:15:02.787Z,79.12
2023-03-06T12:20:03.087Z,79.07
2023-03-06T12:25:02.472Z,79.01
2023-03-06T12:30:02.895Z,78.95
2023-03-06T12:35:04.763Z,78.91
2023-03-06T12:40:03.399Z,78.87
2023-03-06T12:45:02.768Z,78.83
2023-03-06T12:50:03.069Z,78.77
2023-03-06T12:55:02.425Z,78.74
2023-03-06T13:00:02.573Z,78.71
2023-03-06T13:05:12.918Z,78.69
2023-03-06T13:10:03.112Z,78.69
2023-03-06T13:15:02.287Z,78.66
2023-03-06T13:20:03.235Z,78.65
2023-03-06T13:25:11.260Z,78.66
2023-03-06T13:30:03.098Z,78.63
2023-03-06T13:35:03.690Z,78.62
2023-03-06T13:40:02.976Z,78.58
2023-03-06T13:45:03.206Z,78.58
2023-03-06T13:50:02.535Z,78.58
2023-03-06T13:55:03.348Z,78.6
2023-03-06T14:00:13.070Z,78.6
2023-03-06T14:05:02.604Z,78.6
2023-03-06T14:10:03.534Z,78.56
2023-03-06T14:15:04.740Z,78.57
2023-03-06T14:20:03.231Z,78.6
2023-03-06T14:25:03.060Z,78.62
2023-03-06T14:30:02.719Z,78.62
2023-03-06T14:35:04.446Z,78.6
2023-03-06T14:40:04.617Z,78.62
2023-03-06T14:45:02.930Z,78.61
2023-03-06T14:50:13.826Z,78.63
2023-03-06T14:55:03.674Z,78.64
2023-03-06T15:00:03.158Z,78.63
2023-03-06T15:05:02.641Z,78.67
2023-03-06T15:10:03.063Z,78.66
2023-03-06T15:15:03.484Z,78.7
2023-03-06T15:20:03.612Z,78.71
2023-03-06T15:25:03.412Z,78.72
2023-03-06T15:30:02.820Z,78.74
2023-03-06T15:35:04.098Z,78.75
2023-03-06T15:40:03.185Z,78.74
2023-03-06T15:45:02.599Z,78.76
2023-03-06T15:50:04.116Z,78.76
2023-03-06T15:55:02.478Z,78.76
2023-03-06T16:00:03.233Z,78.77
2023-03-06T16:05:03.897Z,78.79
2023-03-06T16:10:03.607Z,78.81
2023-03-06T16:15:02.856Z,78.81
2023-03-06T16:20:03.477Z,78.81
2023-03-06T16:25:03.224Z,78.91
2023-03-06T16:30:02.699Z,78.93
2023-03-06T16:35:04.116Z,78.95
2023-03-06T16:40:02.588Z,78.96
2023-03-06T16:45:03.339Z,79.01
2023-03-06T16:50:03.556Z,79.04
2023-03-06T16:55:03.229Z,79.07
2023-03-06T17:00:02.836Z,79.09
2023-03-06T17:05:03.175Z,79.11
2023-03-06T17:10:02.784Z,79.13
2023-03-06T17:15:03.111Z,79.16
2023-03-06T17:20:02.523Z,79.17
2023-03-06T17:25:06.122Z,79.19
2023-03-06T17:30:02.542Z,79.19
2023-03-06T17:35:03.323Z,79.2
2023-03-06T17:40:03.696Z,79.25
2023-03-06T17:45:03.128Z,79.25
2023-03-06T17:50:03.060Z,79.3
2023-03-06T17:55:02.460Z,79.32
2023-03-06T18:00:02.987Z,79.31
2023-03-06T18:05:02.543Z,79.34
2023-03-06T18:10:06.425Z,79.4
2023-03-06T18:15:02.979Z,79.4
2023-03-06T18:20:02.799Z,79.42
2023-03-06T18:25:03.233Z,79.42
2023-03-06T18:30:03.419Z,79.5
2023-03-06T18:35:03.004Z,79.49
2023-03-06T18:40:02.632Z,79.49
2023-03-06T18:45:03.320Z,79.51
2023-03-06T18:50:02.688Z,79.51
2023-03-06T18:55:03.263Z,79.52
2023-03-06T19:00:03.189Z,79.54
2023-03-06T19:05:03.246Z,79.54
2023-03-06T19:10:03.508Z,79.55
2023-03-06T19:15:02.734Z,79.55
2023-03-06T19:20:03.292Z,79.54
2023-03-06T19:25:06.888Z,79.58
2023-03-06T19:30:03.222Z,79.56
2023-03-06T19:35:03.212Z,79.57
2023-03-06T19:40:03.126Z,79.57
2023-03-06T19:45:02.487Z,79.56
2023-03-06T19:50:02.869Z,79.59
2023-03-06T19:55:04.593Z,79.59
2023-03-06T20:00:03.684Z,79.59
2023-03-06T20:05:03.135Z,79.61
2023-03-06T20:10:03.074Z,79.6
2023-03-06T20:15:02.477Z,79.61
2023-03-06T20:20:05.183Z,79.62
2023-03-06T20:25:02.879Z,79.63
2023-03-06T20:30:03.616Z,79.63
2023-03-06T20:35:03.103Z,79.63
2023-03-06T20:40:02.571Z,79.64
2023-03-06T20:45:03.276Z,79.64
2023-03-06T20:50:03.155Z,79.63
2023-03-06T20:55:03.028Z,79.65
2023-03-06T21:00:02.575Z,79.64
2023-03-06T21:05:02.904Z,79.64
2023-03-06T21:10:02.849Z,79.66
2023-03-06T21:15:03.250Z,79.65
2023-03-06T21:20:02.658Z,79.63
2023-03-06T21:25:03.082Z,79.66
2023-03-06T21:30:02.807Z,79.64
2023-03-06T21:35:03.406Z,79.67
2023-03-06T21:40:02.843Z,79.68
2023-03-06T21:45:03.267Z,79.68
2023-03-06T21:50:02.866Z,79.67
2023-03-06T21:55:03.910Z,79.68
2023-03-06T22:00:03.397Z,79.67
2023-03-06T22:05:22.365Z,79.68
2023-03-06T22:10:08.429Z,79.69
2023-03-06T22:15:08.455Z,79.7
2023-03-06T22:20:08.536Z,79.72
2023-03-06T22:25:08.596Z,79.69
2023-03-06T22:30:08.680Z,79.71
2023-03-06T22:35:08.910Z,79.71
2023-03-06T22:40:08.951Z,79.71
2023-03-06T22:45:07.985Z,79.74
2023-03-06T22:50:08.027Z,79.72
2023-03-06T22:55:08.115Z,79.74
2023-03-06T23:00:08.227Z,79.71
2023-03-06T23:05:08.269Z,79.71
2023-03-06T23:10:08.322Z,79.71
2023-03-06T23:15:08.433Z,79.71
2023-03-06T23:20:08.517Z,79.71
2023-03-06T23:25:08.580Z,79.71
2023-03-06T23:30:08.646Z,79.73
2023-03-06T23:35:08.730Z,79.72
2023-03-06T23:40:08.844Z,79.7
2023-03-06T23:45:08.911Z,79.68
2023-03-06T23:50:08.987Z,79.69
2023-03-06T23:55:08.081Z,79.7
